createdAt,value
2018-08-23T00:00:45.886Z,10.18
2018-08-23T00:03:20.419Z,9.98
2018-08-23T00:05:54.455Z,10.55
2018-08-23T00:08:23.854Z,10.32
2018-08-23T00:10:53.630Z,9.98
2018-08-23T00:13:22.960Z,11.10
2018-08-23T00:15:52.024Z,10.30
2018-08-23T00:18:21.054Z,10.63
2018-08-23T00:20:50.441Z,10.25
2018-08-23T00:23:19.670Z,10.65
2018-08-23T00:25:48.702Z,11.12
2018-08-23T00:28:17.710Z,10.53
2018-08-23T00:30:47.621Z,10.93
2018-08-23T00:33:16.145Z,10.37
2018-08-23T00:35:45.141Z,10.75
2018-08-23T00:38:14.170Z,10.90
2018-08-23T00:40:44.477Z,10.65
2018-08-23T00:43:14.090Z,10.47
2018-08-23T00:45:43.972Z,10.28
2018-08-23T00:48:13.038Z,10.30
2018-08-23T00:50:56.542Z,10.08
2018-08-23T00:53:25.917Z,10.45
2018-08-23T00:56:08.910Z,10.78
2018-08-23T00:58:37.928Z,9.95
2018-08-23T01:01:06.922Z,9.35
2018-08-23T01:03:36.087Z,10.00
2018-08-23T01:06:05.066Z,9.98
2018-08-23T01:08:34.067Z,9.97
2018-08-23T01:11:03.453Z,10.03
2018-08-23T01:13:32.629Z,10.63
2018-08-23T01:16:01.168Z,9.43
2018-08-23T01:18:30.191Z,9.95
2018-08-23T01:20:59.231Z,10.28
2018-08-23T01:23:28.261Z,10.53
2018-08-23T01:25:57.032Z,10.00
2018-08-23T01:28:26.039Z,9.75
2018-08-23T01:30:55.322Z,10.32
2018-08-23T01:33:24.439Z,10.58
2018-08-23T01:35:53.017Z,10.20
2018-08-23T01:38:21.486Z,10.00
2018-08-23T01:40:53.673Z,9.67
2018-08-23T01:43:23.822Z,10.07
2018-08-23T01:45:52.802Z,9.45
2018-08-23T01:48:21.338Z,9.13
2018-08-23T01:50:50.300Z,9.65
2018-08-23T01:53:19.840Z,9.70
2018-08-23T01:55:48.328Z,9.30
2018-08-23T01:58:16.998Z,9.33
2018-08-23T02:00:46.474Z,8.93
2018-08-23T02:03:15.498Z,9.53
2018-08-23T02:05:44.480Z,9.13
2018-08-23T02:08:13.480Z,9.40
2018-08-23T02:10:42.446Z,9.78
2018-08-23T02:13:15.286Z,9.10
2018-08-23T02:15:49.697Z,9.33
2018-08-23T02:18:18.760Z,9.35
2018-08-23T02:20:50.288Z,9.33
2018-08-23T02:23:18.751Z,8.60
2018-08-23T02:25:47.445Z,9.77
2018-08-23T02:28:16.515Z,8.75
2018-08-23T02:30:54.939Z,9.00
2018-08-23T02:33:25.182Z,8.70
2018-08-23T02:36:22.838Z,8.83
2018-08-23T02:39:03.820Z,9.28
2018-08-23T02:41:32.406Z,9.07
2018-08-23T02:44:00.812Z,9.17
2018-08-23T02:46:31.796Z,9.58
2018-08-23T02:49:00.266Z,8.80
2018-08-23T02:51:43.661Z,9.30
2018-08-23T02:54:13.988Z,8.83
2018-08-23T02:56:50.849Z,8.83
2018-08-23T02:59:19.279Z,9.05
2018-08-23T03:01:48.711Z,9.00
2018-08-23T03:04:22.135Z,8.17
2018-08-23T03:06:52.340Z,7.93
2018-08-23T03:09:23.473Z,8.33
2018-08-23T03:11:54.308Z,8.60
2018-08-23T03:14:23.620Z,8.47
2018-08-23T03:17:30.038Z,8.53
2018-08-23T03:20:18.644Z,8.67
2018-08-23T03:22:51.635Z,8.57
2018-08-23T03:25:21.856Z,8.20
2018-08-23T03:27:51.075Z,7.17
2018-08-23T03:30:20.145Z,7.10
2018-08-23T03:32:48.575Z,7.87
2018-08-23T03:35:17.590Z,8.05
2018-08-23T03:37:46.026Z,8.67
2018-08-23T03:40:15.619Z,7.93
2018-08-23T03:42:44.159Z,8.17
2018-08-23T03:45:18.221Z,7.73
2018-08-23T03:47:50.609Z,7.30
2018-08-23T03:50:19.061Z,7.47
2018-08-23T03:52:51.082Z,7.40
2018-08-23T03:55:22.568Z,7.60
2018-08-23T03:57:57.678Z,7.28
2018-08-23T04:00:31.449Z,7.67
2018-08-23T04:03:01.540Z,7.33
2018-08-23T04:05:30.115Z,7.23
2018-08-23T04:07:58.601Z,8.17
2018-08-23T04:10:27.027Z,7.60
2018-08-23T04:12:55.499Z,7.90
2018-08-23T04:15:28.154Z,7.07
2018-08-23T04:17:57.431Z,7.20
2018-08-23T04:20:26.083Z,8.20
2018-08-23T04:22:54.851Z,7.53
2018-08-23T04:25:23.982Z,7.15
2018-08-23T04:27:52.419Z,8.03
2018-08-23T04:30:21.014Z,6.90
2018-08-23T04:32:50.081Z,7.40
2018-08-23T04:35:20.739Z,8.27
2018-08-23T04:37:50.442Z,7.03
2018-08-23T04:40:19.294Z,7.50
2018-08-23T04:42:47.742Z,7.57
2018-08-23T04:45:22.431Z,6.73
2018-08-23T04:47:58.208Z,6.63
2018-08-23T04:50:26.894Z,6.97
2018-08-23T04:52:55.396Z,6.53
2018-08-23T04:55:25.216Z,7.50
2018-08-23T04:57:53.766Z,7.27
2018-08-23T05:00:22.904Z,7.05
2018-08-23T05:02:51.726Z,7.10
2018-08-23T05:05:20.479Z,6.53
2018-08-23T05:07:49.029Z,7.17
2018-08-23T05:10:17.617Z,7.33
2018-08-23T05:12:46.836Z,7.08
2018-08-23T05:15:15.508Z,6.90
2018-08-23T05:17:43.931Z,6.77
2018-08-23T05:20:12.460Z,6.80
2018-08-23T05:22:49.062Z,6.80
2018-08-23T05:25:17.548Z,6.73
2018-08-23T05:28:02.680Z,7.47
2018-08-23T05:30:31.134Z,6.33
2018-08-23T05:33:04.465Z,6.30
2018-08-23T05:35:33.100Z,6.97
2018-08-23T05:38:02.068Z,6.28
2018-08-23T05:40:36.378Z,6.37
2018-08-23T05:43:05.353Z,6.17
2018-08-23T05:45:39.167Z,6.13
2018-08-23T05:48:31.019Z,6.40
2018-08-23T05:51:01.091Z,6.62
2018-08-23T05:53:41.158Z,6.45
2018-08-23T05:56:09.919Z,6.67
2018-08-23T05:58:39.052Z,6.35
2018-08-23T06:01:08.032Z,6.28
2018-08-23T06:03:37.914Z,6.93
2018-08-23T06:06:06.478Z,7.10
2018-08-23T06:08:35.482Z,6.65
2018-08-23T06:11:08.719Z,6.57
2018-08-23T06:13:37.706Z,6.15
2018-08-23T06:16:06.762Z,6.70
2018-08-23T06:18:35.761Z,6.78
2018-08-23T06:21:04.876Z,6.80
2018-08-23T06:24:11.555Z,6.72
2018-08-23T06:26:47.318Z,6.75
2018-08-23T06:29:18.938Z,6.12
2018-08-23T06:32:08.319Z,6.03
2018-08-23T06:34:39.806Z,5.60
2018-08-23T06:37:08.835Z,5.95
2018-08-23T06:39:38.972Z,6.40
2018-08-23T06:42:08.015Z,5.70
2018-08-23T06:44:56.815Z,6.23
2018-08-23T06:47:27.072Z,5.78
2018-08-23T06:49:56.320Z,6.37
2018-08-23T06:52:37.258Z,5.37
2018-08-23T06:55:06.834Z,5.90
2018-08-23T06:57:47.494Z,4.87
2018-08-23T07:00:21.958Z,5.17
2018-08-23T07:02:50.970Z,4.95
2018-08-23T07:05:20.439Z,5.08
2018-08-23T07:07:49.706Z,5.10
2018-08-23T07:10:18.792Z,5.72
2018-08-23T07:12:47.979Z,5.17
2018-08-23T07:15:16.959Z,4.42
2018-08-23T07:17:46.070Z,5.05
2018-08-23T07:20:16.366Z,5.05
2018-08-23T07:22:45.447Z,4.83
2018-08-23T07:25:16.034Z,4.75
2018-08-23T07:27:45.019Z,5.00
2018-08-23T07:30:16.227Z,4.42
2018-08-23T07:32:46.771Z,4.35
2018-08-23T07:35:19.985Z,4.53
2018-08-23T07:37:50.399Z,4.58
2018-08-23T07:40:20.746Z,4.85
2018-08-23T07:42:51.091Z,4.40
2018-08-23T07:45:20.117Z,4.40
2018-08-23T07:47:51.506Z,4.65
2018-08-23T07:50:20.560Z,4.87
2018-08-23T07:52:51.006Z,4.45
2018-08-23T07:55:20.068Z,4.83
2018-08-23T07:57:49.054Z,4.85
2018-08-23T08:00:39.838Z,4.60
2018-08-23T08:03:10.033Z,4.75
2018-08-23T08:05:40.975Z,4.70
2018-08-23T08:08:11.063Z,4.78
2018-08-23T08:10:42.302Z,5.30
2018-08-23T08:13:11.277Z,4.62
2018-08-23T08:15:40.531Z,4.55
2018-08-23T08:18:12.452Z,4.53
2018-08-23T08:20:41.782Z,4.53
2018-08-23T08:23:10.930Z,4.30
2018-08-23T08:25:39.968Z,4.60
2018-08-23T08:28:13.796Z,4.75
2018-08-23T08:30:44.501Z,4.40
2018-08-23T08:33:21.238Z,4.60
2018-08-23T08:35:51.729Z,4.83
2018-08-23T08:38:20.925Z,4.55
2018-08-23T08:40:51.403Z,4.28
2018-08-23T08:43:20.431Z,4.65
2018-08-23T08:45:53.766Z,4.00
2018-08-23T08:48:33.425Z,4.62
2018-08-23T08:51:32.351Z,4.60
2018-08-23T08:54:02.987Z,4.50
2018-08-23T08:56:37.029Z,5.00
2018-08-23T08:59:06.218Z,5.03
2018-08-23T09:01:35.270Z,4.80
2018-08-23T09:04:04.473Z,4.70
2018-08-23T09:06:46.082Z,5.12
2018-08-23T09:09:28.393Z,5.00
2018-08-23T09:11:59.408Z,5.08
2018-08-23T09:14:28.442Z,4.83
2018-08-23T09:16:57.527Z,4.70
2018-08-23T09:19:38.058Z,5.10
2018-08-23T09:22:12.608Z,4.62
2018-08-23T09:24:41.619Z,4.37
2018-08-23T09:27:17.028Z,5.05
2018-08-23T09:29:46.119Z,5.22
2018-08-23T09:32:20.710Z,4.60
2018-08-23T09:34:50.118Z,4.92
2018-08-23T09:37:19.436Z,4.40
2018-08-23T09:39:48.884Z,4.85
2018-08-23T09:42:17.902Z,4.55
2018-08-23T09:44:59.535Z,4.22
2018-08-23T09:47:28.937Z,4.55
2018-08-23T09:49:58.759Z,5.42
2018-08-23T09:52:29.546Z,4.95
2018-08-23T09:54:58.689Z,5.00
2018-08-23T09:57:27.696Z,5.12
2018-08-23T09:59:57.352Z,5.20
2018-08-23T10:02:31.603Z,4.67
2018-08-23T10:05:05.269Z,4.70
2018-08-23T10:07:39.746Z,5.30
2018-08-23T10:10:14.386Z,5.05
2018-08-23T10:12:48.867Z,6.08
2018-08-23T10:15:23.366Z,4.85
2018-08-23T10:17:57.779Z,4.87
2018-08-23T10:20:32.148Z,5.03
2018-08-23T10:23:06.670Z,5.45
2018-08-23T10:25:41.271Z,4.92
2018-08-23T10:28:11.471Z,5.55
2018-08-23T10:30:41.058Z,5.47
2018-08-23T10:33:10.050Z,5.72
2018-08-23T10:35:43.251Z,5.20
2018-08-23T10:38:14.293Z,5.60
2018-08-23T10:40:44.207Z,5.83
2018-08-23T10:43:13.534Z,5.83
2018-08-23T10:45:42.821Z,5.60
2018-08-23T10:48:14.788Z,5.47
2018-08-23T10:50:44.461Z,5.83
2018-08-23T10:53:14.090Z,5.50
2018-08-23T10:55:43.608Z,5.58
2018-08-23T10:58:12.653Z,5.90
2018-08-23T11:00:42.010Z,5.83
2018-08-23T11:03:11.025Z,5.50
2018-08-23T11:05:40.063Z,5.72
2018-08-23T11:08:14.634Z,5.60
2018-08-23T11:10:49.321Z,5.72
2018-08-23T11:13:23.583Z,6.05
2018-08-23T11:15:57.892Z,5.70
2018-08-23T11:18:32.381Z,5.62
2018-08-23T11:21:01.321Z,6.45
2018-08-23T11:23:30.351Z,6.55
2018-08-23T11:25:59.550Z,6.28
2018-08-23T11:28:28.582Z,6.22
2018-08-23T11:31:01.679Z,6.47
2018-08-23T11:33:30.760Z,6.20
2018-08-23T11:35:59.753Z,6.10
2018-08-23T11:38:28.787Z,6.25
2018-08-23T11:40:57.818Z,6.45
2018-08-23T11:43:26.815Z,5.92
2018-08-23T11:45:57.004Z,6.45
2018-08-23T11:48:26.129Z,5.97
2018-08-23T11:50:55.118Z,5.83
2018-08-23T11:53:24.379Z,6.00
2018-08-23T11:55:53.375Z,5.80
2018-08-23T11:58:22.385Z,6.33
2018-08-23T12:00:51.630Z,5.92
2018-08-23T12:03:20.652Z,6.28
2018-08-23T12:05:49.707Z,6.55
2018-08-23T12:08:18.957Z,6.33
2018-08-23T12:10:47.991Z,6.67
2018-08-23T12:13:17.133Z,6.50
2018-08-23T12:15:46.270Z,6.37
2018-08-23T12:18:15.250Z,6.85
2018-08-23T12:20:44.224Z,6.33
2018-08-23T12:23:13.246Z,6.10
2018-08-23T12:25:42.303Z,6.70
2018-08-23T12:29:18.582Z,7.28
2018-08-23T12:31:47.552Z,6.35
2018-08-23T12:34:26.946Z,6.78
2018-08-23T12:37:01.332Z,6.42
2018-08-23T12:39:35.931Z,6.60
2018-08-23T12:42:10.193Z,6.55
2018-08-23T12:44:44.604Z,7.10
2018-08-23T12:47:13.758Z,7.17
2018-08-23T12:49:45.992Z,7.75
2018-08-23T12:52:15.404Z,6.75
2018-08-23T12:54:44.460Z,6.83
2018-08-23T12:57:13.706Z,7.05
2018-08-23T12:59:42.744Z,6.97
2018-08-23T13:02:11.755Z,8.05
2018-08-23T13:04:40.962Z,6.62
2018-08-23T13:07:10.006Z,7.78
2018-08-23T13:09:39.202Z,7.15
2018-08-23T13:12:08.216Z,8.00
2018-08-23T13:14:37.307Z,7.35
2018-08-23T13:17:06.372Z,7.17
2018-08-23T13:19:35.596Z,7.35
2018-08-23T13:22:04.684Z,8.53
2018-08-23T13:24:37.934Z,7.37
2018-08-23T13:27:06.918Z,7.62
2018-08-23T13:29:36.187Z,7.28
2018-08-23T13:32:05.226Z,7.47
2018-08-23T13:34:34.358Z,7.67
2018-08-23T13:37:03.384Z,7.60
2018-08-23T13:39:32.519Z,7.80
2018-08-23T13:42:01.505Z,7.30
2018-08-23T13:44:30.686Z,7.40
2018-08-23T13:46:59.947Z,7.22
2018-08-23T13:49:28.985Z,8.10
2018-08-23T13:51:58.008Z,7.50
2018-08-23T13:54:27.336Z,8.03
2018-08-23T13:56:56.466Z,7.30
2018-08-23T13:59:25.495Z,7.40
2018-08-23T14:01:54.478Z,7.40
2018-08-23T14:04:23.445Z,7.25
2018-08-23T14:06:52.442Z,7.58
2018-08-23T14:09:21.435Z,7.67
2018-08-23T14:11:50.439Z,6.97
2018-08-23T14:14:19.479Z,6.92
2018-08-23T14:16:48.503Z,7.45
2018-08-23T14:19:17.534Z,7.20
2018-08-23T14:21:46.754Z,6.90
2018-08-23T14:24:16.607Z,7.28
2018-08-23T14:26:45.606Z,7.78
2018-08-23T14:29:14.710Z,7.40
2018-08-23T14:31:43.691Z,6.65
2018-08-23T14:34:12.686Z,7.83
2018-08-23T14:36:41.720Z,7.78
2018-08-23T14:39:11.881Z,8.60
2018-08-23T14:41:40.962Z,6.92
2018-08-23T14:44:10.229Z,6.90
2018-08-23T14:46:44.671Z,4.28
2018-08-23T14:49:18.834Z,4.70
2018-08-23T14:51:47.831Z,4.75
2018-08-23T14:54:22.129Z,4.42
2018-08-23T14:56:56.608Z,4.55
2018-08-23T14:59:25.665Z,5.08
2018-08-23T15:01:54.652Z,5.28
2018-08-23T15:04:23.672Z,5.00
2018-08-23T15:06:52.876Z,5.12
2018-08-23T15:09:25.247Z,5.30
2018-08-23T15:11:54.406Z,5.35
2018-08-23T15:14:23.389Z,4.87
2018-08-23T15:16:52.415Z,4.75
2018-08-23T15:19:21.378Z,5.17
2018-08-23T15:21:50.481Z,4.70
2018-08-23T15:24:19.482Z,5.45
2018-08-23T15:26:48.846Z,5.60
2018-08-23T15:29:17.856Z,5.47
2018-08-23T15:31:46.908Z,5.03
2018-08-23T15:34:16.011Z,5.55
2018-08-23T15:36:45.068Z,5.37
2018-08-23T15:39:15.170Z,6.17
2018-08-23T15:41:44.273Z,5.62
2018-08-23T15:44:14.258Z,5.30
2018-08-23T15:46:45.349Z,4.53
2018-08-23T15:49:14.754Z,4.33
2018-08-23T15:51:44.190Z,4.55
2018-08-23T15:54:16.596Z,4.08
2018-08-23T15:56:45.648Z,3.92
2018-08-23T15:59:14.720Z,3.50
2018-08-23T16:01:43.856Z,3.85
2018-08-23T16:04:12.870Z,3.55
2018-08-23T16:06:41.861Z,3.67
2018-08-23T16:09:12.277Z,3.65
2018-08-23T16:11:41.342Z,3.55
2018-08-23T16:14:10.368Z,3.45
2018-08-23T16:16:44.631Z,3.47
2018-08-23T16:19:18.888Z,3.80
2018-08-23T16:21:53.294Z,3.60
2018-08-23T16:24:22.302Z,4.20
2018-08-23T16:26:56.631Z,4.60
2018-08-23T16:29:25.641Z,4.40
2018-08-23T16:31:55.297Z,4.62
2018-08-23T16:34:24.455Z,4.40
2018-08-23T16:36:53.471Z,4.35
2018-08-23T16:39:22.532Z,4.53
2018-08-23T16:41:51.569Z,4.50
2018-08-23T16:44:20.640Z,5.03
2018-08-23T16:46:49.663Z,4.87
2018-08-23T16:49:18.686Z,4.75
2018-08-23T16:51:47.784Z,4.72
2018-08-23T16:54:16.818Z,5.40
2018-08-23T16:56:45.846Z,5.65
2018-08-23T16:59:14.817Z,4.62
2018-08-23T17:01:43.833Z,4.87
2018-08-23T17:04:12.879Z,4.45
2018-08-23T17:06:42.317Z,4.20
2018-08-23T17:09:11.392Z,4.85
2018-08-23T17:11:40.504Z,4.45
2018-08-23T17:14:11.100Z,4.12
2018-08-23T17:16:45.378Z,4.80
2018-08-23T17:19:14.488Z,4.62
2018-08-23T17:21:43.506Z,4.92
2018-08-23T17:24:12.538Z,4.80
2018-08-23T17:26:41.723Z,4.60
2018-08-23T17:29:10.750Z,4.87
2018-08-23T17:31:39.878Z,4.78
2018-08-23T17:34:08.895Z,4.75
2018-08-23T17:36:37.922Z,4.65
2018-08-23T17:39:07.781Z,4.35
2018-08-23T17:41:36.798Z,3.80
2018-08-23T17:44:05.939Z,3.90
2018-08-23T17:46:36.576Z,3.42
2018-08-23T17:49:06.502Z,3.50
2018-08-23T17:51:35.469Z,3.30
2018-08-23T17:54:04.468Z,2.77
2018-08-23T17:56:33.599Z,2.92
2018-08-23T17:59:02.573Z,3.02
2018-08-23T18:01:31.678Z,3.17
2018-08-23T18:04:00.752Z,3.02
2018-08-23T18:06:29.804Z,2.67
2018-08-23T18:08:58.967Z,2.90
2018-08-23T18:11:28.227Z,3.22
2018-08-23T18:13:57.278Z,3.10
2018-08-23T18:16:31.620Z,2.92
2018-08-23T18:19:00.816Z,3.10
2018-08-23T18:21:29.820Z,3.27
2018-08-23T18:23:58.918Z,3.30
2018-08-23T18:26:27.876Z,3.58
2018-08-23T18:28:57.275Z,3.42
2018-08-23T18:31:26.289Z,3.47
2018-08-23T18:33:55.352Z,3.20
2018-08-23T18:36:24.355Z,3.40
2018-08-23T18:38:53.378Z,3.35
2018-08-23T18:41:22.397Z,3.27
2018-08-23T18:43:51.747Z,3.60
2018-08-23T18:46:20.787Z,3.20
2018-08-23T18:48:49.823Z,3.50
2018-08-23T18:51:18.855Z,3.42
2018-08-23T18:53:47.937Z,3.47
2018-08-23T18:56:17.161Z,4.05
2018-08-23T18:58:46.126Z,3.80
2018-08-23T19:01:15.149Z,3.37
2018-08-23T19:03:44.189Z,3.30
2018-08-23T19:06:13.215Z,3.80
2018-08-23T19:08:42.193Z,3.87
2018-08-23T19:11:11.261Z,3.77
2018-08-23T19:13:40.344Z,4.10
2018-08-23T19:16:14.705Z,3.80
2018-08-23T19:18:43.963Z,3.37
2018-08-23T19:21:12.964Z,3.30
2018-08-23T19:23:41.982Z,3.55
2018-08-23T19:26:11.374Z,3.55
2018-08-23T19:28:40.495Z,3.67
2018-08-23T19:31:09.533Z,4.35
2018-08-23T19:33:38.636Z,4.08
2018-08-23T19:36:07.866Z,3.75
2018-08-23T19:38:36.887Z,3.70
2018-08-23T19:41:05.844Z,3.85
2018-08-23T19:43:35.200Z,3.60
2018-08-23T19:46:09.767Z,3.22
2018-08-23T19:48:38.918Z,3.40
2018-08-23T19:51:08.323Z,3.90
2018-08-23T19:53:37.680Z,3.67
2018-08-23T19:56:06.721Z,3.67
2018-08-23T19:58:35.988Z,4.12
2018-08-23T20:01:05.166Z,4.33
2018-08-23T20:03:34.246Z,3.50
2018-08-23T20:06:03.290Z,3.70
2018-08-23T20:08:32.302Z,3.05
2018-08-23T20:11:01.545Z,4.35
2018-08-23T20:13:30.610Z,3.62
2018-08-23T20:15:59.688Z,3.60
2018-08-23T20:18:28.724Z,3.80
2018-08-23T20:20:57.812Z,3.25
2018-08-23T20:23:26.866Z,10.48
2018-08-23T20:25:55.906Z,6.25
2018-08-23T20:28:24.905Z,5.08
2018-08-23T20:30:53.936Z,5.20
2018-08-23T20:33:23.067Z,8.43
2018-08-23T20:35:52.147Z,10.82
2018-08-23T20:38:21.250Z,8.73
2018-08-23T20:40:49.734Z,7.30
2018-08-23T20:43:18.739Z,15.63
2018-08-23T20:45:47.763Z,7.17
2018-08-23T20:48:16.815Z,8.10
2018-08-23T20:50:45.833Z,4.90
2018-08-23T20:53:14.833Z,4.15
2018-08-23T20:55:43.876Z,5.05
2018-08-23T20:58:13.138Z,7.80
2018-08-23T21:00:42.287Z,6.47
2018-08-23T21:03:11.603Z,4.90
2018-08-23T21:05:40.065Z,3.90
2018-08-23T21:08:09.126Z,3.33
2018-08-23T21:10:38.229Z,3.87
2018-08-23T21:13:07.363Z,3.65
2018-08-23T21:15:38.687Z,3.87
2018-08-23T21:18:09.775Z,3.45
2018-08-23T21:20:39.085Z,3.65
2018-08-23T21:23:08.214Z,3.02
2018-08-23T21:25:37.393Z,3.30
2018-08-23T21:28:05.914Z,3.33
2018-08-23T21:30:34.949Z,3.62
2018-08-23T21:33:03.978Z,3.40
2018-08-23T21:35:32.960Z,4.03
2018-08-23T21:38:01.944Z,3.30
2018-08-23T21:40:30.380Z,3.23
2018-08-23T21:42:59.452Z,4.20
2018-08-23T21:45:28.516Z,4.00
2018-08-23T21:47:57.139Z,3.57
2018-08-23T21:50:25.588Z,3.27
2018-08-23T21:52:54.019Z,2.90
2018-08-23T21:55:26.741Z,2.90
2018-08-23T21:57:55.289Z,2.70
2018-08-23T22:00:23.751Z,3.10
2018-08-23T22:02:52.164Z,2.93
2018-08-23T22:05:20.943Z,3.00
2018-08-23T22:07:49.430Z,3.00
2018-08-23T22:10:17.858Z,3.30
2018-08-23T22:12:46.856Z,3.20
2018-08-23T22:15:15.356Z,3.07
2018-08-23T22:17:44.514Z,3.42
2018-08-23T22:20:13.288Z,3.10
2018-08-23T22:22:41.846Z,3.20
2018-08-23T22:25:11.168Z,3.00
2018-08-23T22:27:39.737Z,2.83
2018-08-23T22:30:08.206Z,3.00
2018-08-23T22:32:38.349Z,2.90
2018-08-23T22:35:06.790Z,3.30
2018-08-23T22:37:35.339Z,2.87
2018-08-23T22:40:03.852Z,3.43
2018-08-23T22:42:32.645Z,3.57
2018-08-23T22:45:01.216Z,3.27
2018-08-23T22:47:30.407Z,3.17
2018-08-23T22:49:58.954Z,3.10
2018-08-23T22:52:27.704Z,2.80
2018-08-23T22:54:56.282Z,3.10
2018-08-23T22:57:24.850Z,3.03
2018-08-23T22:59:53.782Z,3.20
2018-08-23T23:02:34.410Z,3.30
2018-08-23T23:05:02.927Z,3.13
2018-08-23T23:07:31.638Z,3.00
2018-08-23T23:10:00.097Z,3.10
2018-08-23T23:12:28.755Z,3.10
2018-08-23T23:14:57.183Z,2.70
2018-08-23T23:17:25.597Z,2.90
2018-08-23T23:19:54.042Z,2.90
2018-08-23T23:22:22.454Z,2.50
2018-08-23T23:24:56.273Z,2.70
2018-08-23T23:27:24.778Z,3.00
2018-08-23T23:29:53.330Z,2.67
2018-08-23T23:32:21.760Z,2.97
2018-08-23T23:34:50.257Z,3.00
2018-08-23T23:37:18.674Z,2.87
2018-08-23T23:39:47.144Z,2.77
2018-08-23T23:42:15.663Z,3.43
2018-08-23T23:44:44.167Z,2.70
2018-08-23T23:47:12.821Z,2.60
2018-08-23T23:49:41.353Z,3.00
2018-08-23T23:52:09.852Z,3.37
2018-08-23T23:54:38.346Z,2.60
2018-08-23T23:57:06.935Z,2.90
2018-08-23T23:59:35.678Z,2.63
